createdAt,value
2023-05-20T00:01:52.516Z,101269.34
2023-05-20T00:04:23.022Z,101269.15
2023-05-20T00:06:54.799Z,101265.64
2023-05-20T00:09:25.317Z,101263.17
2023-05-20T00:11:55.777Z,101261.23
2023-05-20T00:14:26.302Z,101260.02
2023-05-20T00:16:56.819Z,101259.48
2023-05-20T00:19:27.351Z,101257.73
2023-05-20T00:21:58.053Z,101258.96
2023-05-20T00:24:28.605Z,101261.78
2023-05-20T00:26:58.901Z,101262.84
2023-05-20T00:29:29.598Z,101265.30
2023-05-20T00:32:00.519Z,101265.48
2023-05-20T00:34:31.037Z,101263.55
2023-05-20T00:37:01.355Z,101266.72
2023-05-20T00:39:31.780Z,101264.79
2023-05-20T00:42:03.563Z,101262.34
2023-05-20T00:44:33.929Z,101263.77
2023-05-20T00:47:04.416Z,101264.45
2023-05-20T00:49:34.921Z,101269.90
2023-05-20T00:52:06.033Z,101270.07
2023-05-20T00:54:37.172Z,101265.67
2023-05-20T00:57:08.503Z,101264.63
2023-05-20T00:59:39.887Z,101263.40
2023-05-20T01:02:11.077Z,101263.40
2023-05-20T01:04:46.506Z,101259.89
2023-05-20T01:07:19.051Z,101256.21
2023-05-20T01:09:50.633Z,101256.73
2023-05-20T01:12:28.195Z,101253.77
2023-05-20T01:15:00.861Z,101256.06
2023-05-20T01:17:38.100Z,101255.52
2023-05-20T01:20:12.497Z,101249.56
2023-05-20T01:22:50.049Z,101249.93
2023-05-20T01:25:20.671Z,101248.54
2023-05-20T01:27:52.782Z,101247.66
2023-05-20T01:30:23.714Z,101252.58
2023-05-20T01:33:07.106Z,101255.91
2023-05-20T01:35:37.668Z,101259.77
2023-05-20T01:38:09.420Z,101261.02
2023-05-20T01:40:41.905Z,101257.67
2023-05-20T01:43:13.422Z,101258.73
2023-05-20T01:45:46.087Z,101254.02
2023-05-20T01:48:17.544Z,101257.17
2023-05-20T01:50:47.974Z,101254.02
2023-05-20T01:53:18.330Z,101252.09
2023-05-20T01:55:48.655Z,101256.30
2023-05-20T01:58:19.061Z,101258.77
2023-05-20T02:00:49.801Z,101253.68
2023-05-20T02:03:20.255Z,101258.59
2023-05-20T02:05:50.735Z,101260.34
2023-05-20T02:08:21.226Z,101257.55
2023-05-20T02:10:51.944Z,101257.02
2023-05-20T02:13:22.294Z,101259.30
2023-05-20T02:15:53.389Z,101252.98
2023-05-20T02:18:26.687Z,101258.41
2023-05-20T02:20:57.281Z,101260.73
2023-05-20T02:23:27.688Z,101257.41
2023-05-20T02:25:58.049Z,101255.31
2023-05-20T02:28:28.528Z,101257.40
2023-05-20T02:30:58.977Z,101262.33
2023-05-20T02:33:29.753Z,101268.65
2023-05-20T02:36:00.316Z,101264.45
2023-05-20T02:38:31.811Z,101265.87
2023-05-20T02:41:04.703Z,101260.44
2023-05-20T02:43:36.489Z,101258.34
2023-05-20T02:46:06.976Z,101260.44
2023-05-20T02:48:37.440Z,101260.63
2023-05-20T02:51:08.245Z,101267.13
2023-05-20T02:53:38.623Z,101265.72
2023-05-20T02:56:10.031Z,101262.21
2023-05-20T02:58:40.489Z,101260.29
2023-05-20T03:01:11.042Z,101257.14
2023-05-20T03:03:41.789Z,101255.39
2023-05-20T03:06:12.490Z,101259.59
2023-05-20T03:08:43.789Z,101256.25
2023-05-20T03:11:14.211Z,101254.67
2023-05-20T03:13:44.569Z,101253.09
2023-05-20T03:16:15.002Z,101250.29
2023-05-20T03:18:46.381Z,101250.47
2023-05-20T03:21:16.918Z,101244.86
2023-05-20T03:23:48.611Z,101243.99
2023-05-20T03:26:18.937Z,101249.78
2023-05-20T03:28:49.300Z,101246.29
2023-05-20T03:31:21.159Z,101247.14
2023-05-20T03:33:51.693Z,101252.23
2023-05-20T03:36:22.137Z,101251.70
2023-05-20T03:38:52.599Z,101254.33
2023-05-20T03:41:24.257Z,101253.61
2023-05-20T03:43:55.384Z,101262.20
2023-05-20T03:46:25.914Z,101263.95
2023-05-20T03:48:56.288Z,101262.02
2023-05-20T03:51:27.528Z,101263.06
2023-05-20T03:53:59.155Z,101265.71
2023-05-20T03:56:29.611Z,101268.86
2023-05-20T03:59:00.030Z,101271.67
2023-05-20T04:01:30.495Z,101266.22
2023-05-20T04:04:01.043Z,101269.20
2023-05-20T04:06:31.654Z,101274.96
2023-05-20T04:09:02.222Z,101279.88
2023-05-20T04:11:32.624Z,101282.35
2023-05-20T04:14:03.248Z,101279.88
2023-05-20T04:16:34.173Z,101279.16
2023-05-20T04:19:04.623Z,101281.63
2023-05-20T04:21:35.296Z,101283.91
2023-05-20T04:24:06.932Z,101286.70
2023-05-20T04:26:37.685Z,101287.58
2023-05-20T04:29:08.096Z,101285.98
2023-05-20T04:31:39.385Z,101290.36
2023-05-20T04:34:12.349Z,101290.72
2023-05-20T04:36:43.643Z,101282.31
2023-05-20T04:39:15.738Z,101282.48
2023-05-20T04:41:47.470Z,101281.92
2023-05-20T04:44:18.670Z,101282.83
2023-05-20T04:46:49.068Z,101284.05
2023-05-20T04:49:19.547Z,101283.52
2023-05-20T04:51:50.062Z,101278.77
2023-05-20T04:54:22.238Z,101278.25
2023-05-20T04:56:53.406Z,101272.64
2023-05-20T04:59:23.786Z,101271.23
2023-05-20T05:01:54.598Z,101268.92
2023-05-20T05:04:26.186Z,101267.52
2023-05-20T05:06:56.988Z,101268.70
2023-05-20T05:09:27.578Z,101270.08
2023-05-20T05:11:58.168Z,101267.10
2023-05-20T05:14:28.600Z,101269.02
2023-05-20T05:16:59.452Z,101269.53
2023-05-20T05:19:30.281Z,101272.67
2023-05-20T05:22:00.762Z,101274.21
2023-05-20T05:24:31.186Z,101274.22
2023-05-20T05:27:01.682Z,101279.85
2023-05-20T05:29:32.075Z,101281.42
2023-05-20T05:32:02.801Z,101283.52
2023-05-20T05:34:33.224Z,101286.47
2023-05-20T05:37:03.623Z,101286.45
2023-05-20T05:39:37.718Z,101284.16
2023-05-20T05:42:08.722Z,101283.27
2023-05-20T05:44:39.456Z,101280.80
2023-05-20T05:47:10.954Z,101280.61
2023-05-20T05:49:41.862Z,101281.27
2023-05-20T05:52:12.530Z,101280.19
2023-05-20T05:54:43.161Z,101283.33
2023-05-20T05:57:13.607Z,101281.20
2023-05-20T05:59:44.658Z,101286.83
2023-05-20T06:02:15.669Z,101286.48
2023-05-20T06:04:46.132Z,101291.02
2023-05-20T06:07:16.530Z,101288.74
2023-05-20T06:09:46.991Z,101289.10
2023-05-20T06:12:17.406Z,101284.33
2023-05-20T06:14:48.098Z,101281.33
2023-05-20T06:17:18.530Z,101288.68
2023-05-20T06:19:49.284Z,101291.31
2023-05-20T06:22:20.787Z,101284.45
2023-05-20T06:24:51.308Z,101280.41
2023-05-20T06:27:22.080Z,101274.78
2023-05-20T06:29:53.282Z,101278.77
2023-05-20T06:32:23.712Z,101280.49
2023-05-20T06:34:55.639Z,101282.59
2023-05-20T06:37:26.636Z,101283.81
2023-05-20T06:39:57.333Z,101283.98
2023-05-20T06:42:27.733Z,101285.52
2023-05-20T06:45:10.376Z,101288.34
2023-05-20T06:47:45.918Z,101289.05
2023-05-20T06:50:16.709Z,101284.63
2023-05-20T06:52:48.152Z,101290.39
2023-05-20T06:55:19.795Z,101294.75
2023-05-20T06:57:50.823Z,101295.77
2023-05-20T07:00:22.431Z,101295.19
2023-05-20T07:02:55.110Z,101291.30
2023-05-20T07:05:25.908Z,101286.91
2023-05-20T07:07:56.863Z,101282.34
2023-05-20T07:10:27.664Z,101286.54
2023-05-20T07:12:58.148Z,101286.48
2023-05-20T07:15:29.379Z,101283.66
2023-05-20T07:18:02.164Z,101280.98
2023-05-20T07:20:33.376Z,101284.11
2023-05-20T07:23:08.074Z,101282.48
2023-05-20T07:25:45.807Z,101278.91
2023-05-20T07:28:18.296Z,101279.73
2023-05-20T07:30:50.998Z,101279.51
2023-05-20T07:33:27.891Z,101280.35
2023-05-20T07:35:58.360Z,101278.02
2023-05-20T07:38:28.857Z,101280.41
2023-05-20T07:41:03.300Z,101275.45
2023-05-20T07:43:34.347Z,101275.38
2023-05-20T07:46:05.845Z,101272.36
2023-05-20T07:48:36.230Z,101271.05
2023-05-20T07:51:07.069Z,101278.80
2023-05-20T07:53:38.285Z,101272.32
2023-05-20T07:56:09.251Z,101269.77
2023-05-20T07:58:43.811Z,101270.54
2023-05-20T08:01:14.512Z,101264.25
2023-05-20T08:03:45.506Z,101263.65
2023-05-20T08:06:21.508Z,101265.65
2023-05-20T08:08:54.264Z,101256.85
2023-05-20T08:11:31.361Z,101260.06
2023-05-20T08:14:02.213Z,101254.17
2023-05-20T08:16:34.609Z,101251.73
2023-05-20T08:19:05.472Z,101247.86
2023-05-20T08:21:36.332Z,101242.84
2023-05-20T08:24:08.009Z,101236.55
2023-05-20T08:26:38.943Z,101229.65
2023-05-20T08:29:09.584Z,101223.18
2023-05-20T08:31:40.047Z,101222.98
2023-05-20T08:34:10.753Z,101222.74
2023-05-20T08:36:42.380Z,101223.26
2023-05-20T08:39:13.946Z,101219.80
2023-05-20T08:41:44.861Z,101220.04
2023-05-20T08:44:16.039Z,101222.36
2023-05-20T08:46:47.586Z,101227.91
2023-05-20T08:49:18.544Z,101222.08
2023-05-20T08:51:49.340Z,101224.16
2023-05-20T08:54:24.021Z,101224.66
2023-05-20T08:56:56.004Z,101221.89
2023-05-20T08:59:26.406Z,101216.30
2023-05-20T09:01:57.226Z,101216.91
2023-05-20T09:04:27.679Z,101215.43
2023-05-20T09:06:58.047Z,101215.23
2023-05-20T09:09:28.409Z,101215.77
2023-05-20T09:11:58.724Z,101217.98
2023-05-20T09:14:29.081Z,101220.99
2023-05-20T09:16:59.418Z,101222.89
2023-05-20T09:19:29.897Z,101222.53
2023-05-20T09:22:00.924Z,101217.94
2023-05-20T09:24:31.316Z,101212.01
2023-05-20T09:27:01.684Z,101206.77
2023-05-20T09:29:35.902Z,101204.01
2023-05-20T09:32:07.707Z,101203.07
2023-05-20T09:34:38.474Z,101202.91
2023-05-20T09:37:10.086Z,101195.09
2023-05-20T09:39:49.689Z,101188.15
2023-05-20T09:42:26.583Z,101183.23
2023-05-20T09:44:58.250Z,101184.30
2023-05-20T09:47:29.428Z,101193.08
2023-05-20T09:50:00.724Z,101189.33
2023-05-20T09:52:31.991Z,101185.89
2023-05-20T09:55:06.663Z,101182.26
2023-05-20T09:57:38.714Z,101187.86
2023-05-20T10:00:10.631Z,101186.28
2023-05-20T10:02:47.714Z,101181.51
2023-05-20T10:05:21.108Z,101181.85
2023-05-20T10:08:17.839Z,101184.09
2023-05-20T10:10:51.921Z,101185.30
2023-05-20T10:13:51.913Z,101182.98
2023-05-20T10:16:34.225Z,101193.20
2023-05-20T10:19:12.667Z,101191.66
2023-05-20T10:21:43.068Z,101184.64
2023-05-20T10:24:14.014Z,101183.74
2023-05-20T10:26:44.787Z,101179.11
2023-05-20T10:29:20.180Z,101174.98
2023-05-20T10:31:53.682Z,101173.32
2023-05-20T10:34:24.758Z,101167.22
2023-05-20T10:37:01.577Z,101162.76
2023-05-20T10:39:31.530Z,101159.52
2023-05-20T10:42:12.316Z,101154.41
2023-05-20T10:44:47.290Z,101154.29
2023-05-20T10:47:25.416Z,101150.65
2023-05-20T10:49:56.515Z,101152.21
2023-05-20T10:52:27.463Z,101149.21
2023-05-20T10:55:02.130Z,101151.29
2023-05-20T10:57:33.216Z,101144.15
2023-05-20T11:00:06.025Z,101147.98
2023-05-20T11:02:37.330Z,101143.91
2023-05-20T11:05:12.523Z,101144.50
2023-05-20T11:07:42.917Z,101144.13
2023-05-20T11:10:13.964Z,101148.27
2023-05-20T11:12:44.476Z,101145.20
2023-05-20T11:15:15.664Z,101140.58
2023-05-20T11:17:56.799Z,101135.34
2023-05-20T11:20:28.182Z,101126.30
2023-05-20T11:22:58.641Z,101119.86
2023-05-20T11:25:29.327Z,101114.98
2023-05-20T11:28:00.709Z,101116.14
2023-05-20T11:30:33.431Z,101116.72
2023-05-20T11:33:06.211Z,101116.73
2023-05-20T11:35:36.717Z,101115.23
2023-05-20T11:38:09.380Z,101113.54
2023-05-20T11:40:50.384Z,101116.16
2023-05-20T11:43:22.061Z,101114.23
2023-05-20T11:45:59.292Z,101111.44
2023-05-20T11:48:30.091Z,101117.59
2023-05-20T11:51:02.018Z,101119.08
2023-05-20T11:53:32.814Z,101122.05
2023-05-20T11:56:04.304Z,101125.77
2023-05-20T11:58:34.811Z,101119.46
2023-05-20T12:01:17.883Z,101117.41
2023-05-20T12:03:52.757Z,101113.30
2023-05-20T12:06:23.580Z,101109.98
2023-05-20T12:08:53.928Z,101107.09
2023-05-20T12:11:24.307Z,101104.20
2023-05-20T12:13:55.330Z,101101.21
2023-05-20T12:16:25.840Z,101104.14
2023-05-20T12:18:56.475Z,101099.02
2023-05-20T12:21:27.122Z,101100.98
2023-05-20T12:23:58.299Z,101098.95
2023-05-20T12:26:30.079Z,101091.17
2023-05-20T12:29:00.682Z,101089.15
2023-05-20T12:31:33.821Z,101089.09
2023-05-20T12:34:05.196Z,101089.46
2023-05-20T12:36:35.578Z,101089.91
2023-05-20T12:39:06.311Z,101088.41
2023-05-20T12:41:36.656Z,101083.83
2023-05-20T12:44:07.111Z,101083.09
2023-05-20T12:46:38.619Z,101074.82
2023-05-20T12:49:09.377Z,101075.36
2023-05-20T12:51:39.725Z,101073.44
2023-05-20T12:54:10.024Z,101069.20
2023-05-20T12:56:40.616Z,101076.27
2023-05-20T12:59:11.147Z,101070.84
2023-05-20T13:01:41.641Z,101070.81
2023-05-20T13:04:12.104Z,101066.67
2023-05-20T13:06:43.147Z,101070.65
2023-05-20T13:09:13.705Z,101069.72
2023-05-20T13:11:44.061Z,101071.37
2023-05-20T13:14:16.902Z,101067.12
2023-05-20T13:16:48.215Z,101066.30
2023-05-20T13:19:18.633Z,101065.05
2023-05-20T13:21:49.207Z,101063.42
2023-05-20T13:24:19.980Z,101061.36
2023-05-20T13:26:50.305Z,101058.41
2023-05-20T13:29:20.751Z,101055.30
2023-05-20T13:31:51.210Z,101055.63
2023-05-20T13:34:22.024Z,101057.30
2023-05-20T13:36:52.468Z,101052.50
2023-05-20T13:39:22.835Z,101044.83
2023-05-20T13:41:55.123Z,101047.60
2023-05-20T13:44:25.693Z,101040.67
2023-05-20T13:46:56.279Z,101040.68
2023-05-20T13:49:26.666Z,101035.21
2023-05-20T13:51:57.025Z,101028.58
2023-05-20T13:54:27.446Z,101026.54
2023-05-20T13:56:57.904Z,101023.40
2023-05-20T13:59:28.476Z,101019.20
2023-05-20T14:01:58.955Z,101023.93
2023-05-20T14:04:31.344Z,101025.44
2023-05-20T14:07:01.921Z,101020.98
2023-05-20T14:09:32.369Z,101018.02
2023-05-20T14:12:02.830Z,101015.23
2023-05-20T14:14:33.214Z,101009.80
2023-05-20T14:17:03.698Z,101008.46
2023-05-20T14:19:34.145Z,100997.80
2023-05-20T14:22:04.747Z,100980.59
2023-05-20T14:24:35.083Z,100975.02
2023-05-20T14:27:06.181Z,100966.31
2023-05-20T14:29:36.527Z,100959.64
2023-05-20T14:32:08.995Z,100946.70
2023-05-20T14:34:39.356Z,100944.86
2023-05-20T14:37:11.993Z,100940.68
2023-05-20T14:39:42.706Z,100935.18
2023-05-20T14:42:13.147Z,100933.75
2023-05-20T14:44:43.505Z,100930.48
2023-05-20T14:47:16.889Z,100926.92
2023-05-20T14:49:50.067Z,100931.73
2023-05-20T14:52:20.893Z,100931.64
2023-05-20T14:54:51.326Z,100936.25
2023-05-20T14:57:21.847Z,100933.98
2023-05-20T14:59:52.710Z,100928.44
2023-05-20T15:02:23.146Z,100917.79
2023-05-20T15:04:53.589Z,100921.36
2023-05-20T15:07:23.903Z,100920.38
2023-05-20T15:09:54.285Z,100918.75
2023-05-20T15:12:24.610Z,100907.64
2023-05-20T15:14:55.018Z,100901.38
2023-05-20T15:17:25.581Z,100895.73
2023-05-20T15:19:56.084Z,100887.04
2023-05-20T15:22:26.486Z,100882.24
2023-05-20T15:24:56.841Z,100878.85
2023-05-20T15:27:27.276Z,100871.36
2023-05-20T15:29:57.708Z,100872.34
2023-05-20T15:32:28.200Z,100870.17
2023-05-20T15:34:58.667Z,100863.23
2023-05-20T15:37:29.109Z,100860.10
2023-05-20T15:39:59.471Z,100869.42
2023-05-20T15:42:29.997Z,100872.10
2023-05-20T15:45:00.397Z,100869.60
2023-05-20T15:47:30.841Z,100867.84
2023-05-20T15:50:02.315Z,100869.16
2023-05-20T15:52:32.879Z,100868.45
2023-05-20T15:55:03.593Z,100868.79
2023-05-20T15:57:33.989Z,100864.21
2023-05-20T16:00:10.075Z,100863.48
2023-05-20T16:02:40.242Z,100857.81
2023-05-20T16:05:11.380Z,100860.42
2023-05-20T16:07:42.471Z,100855.03
2023-05-20T16:10:13.497Z,100856.51
2023-05-20T16:12:44.588Z,100852.46
2023-05-20T16:15:16.001Z,100856.46
2023-05-20T16:17:46.423Z,100854.30
2023-05-20T16:20:16.825Z,100853.95
2023-05-20T16:22:47.204Z,100854.77
2023-05-20T16:25:17.631Z,100854.85
2023-05-20T16:27:48.060Z,100859.23
2023-05-20T16:30:18.451Z,100853.73
2023-05-20T16:32:48.891Z,100846.96
2023-05-20T16:35:19.583Z,100841.96
2023-05-20T16:37:49.999Z,100837.23
2023-05-20T16:40:20.412Z,100832.23
2023-05-20T16:42:50.840Z,100834.25
2023-05-20T16:45:21.368Z,100835.54
2023-05-20T16:47:52.035Z,100836.33
2023-05-20T16:50:22.488Z,100834.22
2023-05-20T16:52:53.928Z,100837.86
2023-05-20T16:55:24.381Z,100840.27
2023-05-20T16:57:54.858Z,100837.36
2023-05-20T17:00:25.479Z,100847.15
2023-05-20T17:02:55.879Z,100847.03
2023-05-20T17:05:26.276Z,100846.11
2023-05-20T17:08:00.108Z,100847.70
2023-05-20T17:10:30.687Z,100844.32
2023-05-20T17:13:01.156Z,100844.94
2023-05-20T17:15:32.809Z,100847.89
2023-05-20T17:18:03.214Z,100844.06
2023-05-20T17:20:34.275Z,100845.65
2023-05-20T17:23:04.898Z,100841.91
2023-05-20T17:25:35.234Z,100842.49
2023-05-20T17:28:06.159Z,100841.98
2023-05-20T17:30:36.735Z,100838.21
2023-05-20T17:33:07.547Z,100840.03
2023-05-20T17:35:38.114Z,100840.11
2023-05-20T17:38:08.618Z,100839.04
2023-05-20T17:40:39.367Z,100836.44
2023-05-20T17:43:09.800Z,100844.29
2023-05-20T17:45:40.198Z,100844.77
2023-05-20T17:48:11.934Z,100845.30
2023-05-20T17:50:42.613Z,100838.81
2023-05-20T17:53:12.989Z,100840.94
2023-05-20T17:55:47.133Z,100840.64
2023-05-20T17:58:17.826Z,100837.31
2023-05-20T18:00:48.554Z,100834.28
2023-05-20T18:03:19.242Z,100835.07
2023-05-20T18:05:49.801Z,100829.66
2023-05-20T18:08:21.527Z,100831.61
2023-05-20T18:10:52.452Z,100817.03
2023-05-20T18:13:22.820Z,100815.26
2023-05-20T18:15:53.272Z,100817.91
2023-05-20T18:18:23.629Z,100822.09
2023-05-20T18:20:54.110Z,100821.39
2023-05-20T18:23:24.517Z,100826.23
2023-05-20T18:25:54.851Z,100826.23
2023-05-20T18:28:25.253Z,100823.23
2023-05-20T18:30:57.523Z,100822.73
2023-05-20T18:33:28.056Z,100821.91
2023-05-20T18:35:58.531Z,100816.77
2023-05-20T18:38:28.911Z,100817.29
2023-05-20T18:40:59.310Z,100824.17
2023-05-20T18:43:29.881Z,100820.83
2023-05-20T18:46:00.396Z,100818.98
2023-05-20T18:48:30.972Z,100820.02
2023-05-20T18:51:01.410Z,100817.85
2023-05-20T18:53:31.953Z,100820.09
2023-05-20T18:56:03.248Z,100815.21
2023-05-20T18:58:33.685Z,100815.64
2023-05-20T19:01:04.283Z,100819.40
2023-05-20T19:03:34.682Z,100817.27
2023-05-20T19:06:05.279Z,100819.66
2023-05-20T19:08:35.785Z,100821.72
2023-05-20T19:11:06.333Z,100822.77
2023-05-20T19:13:36.813Z,100816.13
2023-05-20T19:16:07.665Z,100814.77
2023-05-20T19:18:39.287Z,100813.58
2023-05-20T19:21:09.955Z,100811.51
2023-05-20T19:23:40.973Z,100807.48
2023-05-20T19:26:11.931Z,100812.64
2023-05-20T19:28:42.304Z,100810.05
2023-05-20T19:31:12.738Z,100813.64
2023-05-20T19:33:43.193Z,100812.09
2023-05-20T19:36:13.543Z,100814.77
2023-05-20T19:38:44.585Z,100820.23
2023-05-20T19:41:15.162Z,100822.17
2023-05-20T19:43:45.557Z,100827.80
2023-05-20T19:46:16.620Z,100830.55
2023-05-20T19:48:47.179Z,100835.77
2023-05-20T19:51:17.959Z,100832.67
2023-05-20T19:53:48.291Z,100833.98
2023-05-20T19:56:20.114Z,100838.41
2023-05-20T19:58:50.924Z,100839.63
2023-05-20T20:01:21.682Z,100841.96
2023-05-20T20:03:52.428Z,100841.56
2023-05-20T20:06:22.820Z,100842.01
2023-05-20T20:08:53.193Z,100844.55
2023-05-20T20:11:23.705Z,100845.84
2023-05-20T20:13:54.038Z,100845.60
2023-05-20T20:16:24.415Z,100845.08
2023-05-20T20:18:55.290Z,100842.76
2023-05-20T20:21:26.200Z,100844.10
2023-05-20T20:23:56.562Z,100844.49
2023-05-20T20:26:27.275Z,100850.23
2023-05-20T20:28:57.633Z,100850.52
2023-05-20T20:31:28.469Z,100843.52
2023-05-20T20:33:58.931Z,100850.36
2023-05-20T20:36:31.961Z,100849.79
2023-05-20T20:39:04.831Z,100847.69
2023-05-20T20:41:35.632Z,100846.65
2023-05-20T20:44:07.416Z,100845.78
2023-05-20T20:46:38.355Z,100847.77
2023-05-20T20:49:08.739Z,100845.96
2023-05-20T20:51:39.235Z,100845.32
2023-05-20T20:54:10.700Z,100846.42
2023-05-20T20:56:45.301Z,100847.01
2023-05-20T20:59:16.673Z,100840.89
2023-05-20T21:01:47.036Z,100842.32
2023-05-20T21:04:17.868Z,100845.65
2023-05-20T21:06:48.202Z,100839.39
2023-05-20T21:09:18.619Z,100839.77
2023-05-20T21:11:49.455Z,100836.30
2023-05-20T21:14:19.956Z,100839.01
2023-05-20T21:16:52.474Z,100837.64
2023-05-20T21:19:23.191Z,100838.49
2023-05-20T21:21:53.634Z,100845.36
2023-05-20T21:24:24.184Z,100846.05
2023-05-20T21:26:54.475Z,100847.41
2023-05-20T21:29:24.909Z,100847.17
2023-05-20T21:31:55.451Z,100844.23
2023-05-20T21:34:25.822Z,100843.16
2023-05-20T21:36:56.182Z,100840.87
2023-05-20T21:39:26.520Z,100844.23
2023-05-20T21:41:56.930Z,100840.79
2023-05-20T21:44:27.287Z,100842.02
2023-05-20T21:46:57.653Z,100844.64
2023-05-20T21:49:28.006Z,100845.11
2023-05-20T21:51:58.381Z,100846.79
2023-05-20T21:54:28.767Z,100850.92
2023-05-20T21:56:59.212Z,100847.22
2023-05-20T21:59:29.638Z,100850.52
2023-05-20T22:02:01.191Z,100851.54
2023-05-20T22:04:33.482Z,100849.17
2023-05-20T22:07:03.958Z,100848.91
2023-05-20T22:09:34.305Z,100849.12
2023-05-20T22:12:04.972Z,100846.05
2023-05-20T22:14:35.521Z,100846.61
2023-05-20T22:17:06.123Z,100843.28
2023-05-20T22:19:36.528Z,100846.45
2023-05-20T22:22:07.045Z,100841.91
2023-05-20T22:24:37.349Z,100839.45
2023-05-20T22:27:10.910Z,100845.92
2023-05-20T22:29:41.296Z,100843.50
2023-05-20T22:32:11.647Z,100838.88
2023-05-20T22:34:41.983Z,100832.51
2023-05-20T22:37:15.865Z,100830.27
2023-05-20T22:39:46.658Z,100841.21
2023-05-20T22:42:17.082Z,100839.65
2023-05-20T22:44:47.712Z,100839.10
2023-05-20T22:47:18.080Z,100838.20
2023-05-20T22:49:48.523Z,100832.44
2023-05-20T22:52:21.250Z,100836.78
2023-05-20T22:54:51.982Z,100833.70
2023-05-20T22:57:22.420Z,100832.04
2023-05-20T22:59:54.005Z,100824.06
2023-05-20T23:02:24.490Z,100823.16
2023-05-20T23:04:54.867Z,100822.05
2023-05-20T23:07:27.934Z,100815.70
2023-05-20T23:09:58.347Z,100812.66
2023-05-20T23:12:28.756Z,100808.51
2023-05-20T23:14:59.100Z,100803.45
2023-05-20T23:17:29.492Z,100807.16
2023-05-20T23:19:59.910Z,100801.77
2023-05-20T23:22:30.295Z,100797.92
2023-05-20T23:25:02.358Z,100800.23
2023-05-20T23:27:32.748Z,100797.46
2023-05-20T23:30:03.066Z,100799.98
2023-05-20T23:32:33.464Z,100798.24
2023-05-20T23:35:04.758Z,100800.02
2023-05-20T23:37:35.562Z,100797.52
2023-05-20T23:40:09.207Z,100802.15
2023-05-20T23:42:39.811Z,100793.67
2023-05-20T23:45:12.476Z,100791.63
2023-05-20T23:47:43.702Z,100793.09
2023-05-20T23:50:14.731Z,100794.86
2023-05-20T23:52:46.354Z,100795.58
2023-05-20T23:55:18.329Z,100800.36
2023-05-20T23:57:49.804Z,100802.71
